Time;durP1;ratioP1;P1;durP2;ratioP2;P2;SDS_P1;SDS_P2;PMS_P1;PMS_P2;Temp;Humidity;BMP_temperature;BMP_pressure;BME280_temperature;BME280_humidity;BME280_pressure;Samples;Min_cycle;Max_cycle;Signal;HPM_P1;HPM_P2
2021/12/16 00:01:50;;;;;;;54.77;32.23;;;9.90;99.90;;;;;;2614471;39;20821;-70
2021/12/16 00:29:39;;;;;;;54.60;33.17;;;10.40;99.90;;;;;;2613771;54;20409;-70
2021/12/16 00:34:46;;;;;;;57.80;32.73;;;10.20;99.90;;;;;;2613450;39;20989;-70
2021/12/16 00:37:12;;;;;;;61.57;33.40;;;10.00;99.90;;;;;;2612353;54;20393;-72
2021/12/16 00:39:39;;;;;;;62.43;35.40;;;10.00;99.90;;;;;;2613170;39;20946;-72
2021/12/16 00:42:12;;;;;;;58.33;33.37;;;10.10;99.90;;;;;;2612585;47;20426;-70
2021/12/16 00:48:04;;;;;;;59.33;34.23;;;9.80;99.90;;;;;;2612890;54;20430;-70
2021/12/16 00:50:21;;;;;;;61.53;34.33;;;10.00;99.90;;;;;;2613764;54;20450;-70
2021/12/16 00:55:47;;;;;;;60.60;34.90;;;9.80;99.90;;;;;;2614118;54;20469;-73
2021/12/16 00:58:15;;;;;;;63.80;36.60;;;9.80;99.90;;;;;;2613634;39;20516;-72
2021/12/16 01:00:43;;;;;;;58.17;34.30;;;9.90;99.90;;;;;;2614032;54;20465;-72
2021/12/16 01:47:25;;;;;;;68.30;40.17;;;10.10;99.90;;;;;;2613542;47;20415;-71
2021/12/16 01:50:11;;;;;;;70.57;36.37;;;10.20;99.90;;;;;;2612662;54;20403;-70
2021/12/16 01:55:30;;;;;;;85.10;39.67;;;10.10;99.90;;;;;;2613726;54;20416;-70
2021/12/16 01:58:09;;;;;;;71.43;38.50;;;10.10;99.90;;;;;;2613095;47;20429;-71
2021/12/16 02:01:08;;;;;;;69.73;38.43;;;10.50;99.90;;;;;;2612714;47;20453;-78
2021/12/16 02:03:54;;;;;;;75.23;40.00;;;10.20;99.90;;;;;;2613465;54;20460;-77
2021/12/16 02:08:51;;;;;;;76.73;41.10;;;10.70;99.90;;;;;;2613578;54;20394;-79
2021/12/16 02:27:40;;;;;;;93.30;42.97;;;10.10;99.90;;;;;;2614630;54;20455;-78
2021/12/16 02:35:47;;;;;;;79.03;40.37;;;10.20;99.90;;;;;;2614791;54;20968;-78
2021/12/16 02:38:22;;;;;;;79.60;41.87;;;10.00;99.90;;;;;;2613981;54;20434;-78
2021/12/16 02:40:49;;;;;;;71.00;39.43;;;10.10;99.90;;;;;;2614007;47;20411;-78
2021/12/16 02:50:56;;;;;;;83.10;46.60;;;10.00;99.90;;;;;;2615629;54;20388;-77
2021/12/16 02:53:22;;;;;;;72.97;41.87;;;10.30;99.90;;;;;;2613560;54;20460;-74
2021/12/16 02:55:48;;;;;;;76.20;42.63;;;10.30;99.90;;;;;;2615217;39;20704;-78
2021/12/16 02:58:15;;;;;;;74.83;42.67;;;10.30;99.90;;;;;;2615597;54;20503;-77
2021/12/16 03:00:48;;;;;;;78.80;41.23;;;10.10;99.90;;;;;;2616053;39;20812;-77
2021/12/16 03:03:15;;;;;;;81.73;40.43;;;10.00;99.90;;;;;;2614200;54;20424;-76
2021/12/16 03:05:42;;;;;;;61.87;37.30;;;9.90;99.90;;;;;;2616248;54;20428;-77
2021/12/16 03:08:08;;;;;;;76.47;41.17;;;9.90;99.90;;;;;;2615049;54;20417;-78
2021/12/16 03:13:29;;;;;;;95.90;43.83;;;10.20;99.90;;;;;;2613974;54;20467;-79
2021/12/16 03:21:23;;;;;;;86.73;43.77;;;10.10;99.90;;;;;;2613835;54;20941;-76
2021/12/16 03:24:14;;;;;;;76.40;40.80;;;10.00;99.90;;;;;;2613917;54;20492;-77
2021/12/16 03:33:15;;;;;;;78.00;41.43;;;10.00;99.90;;;;;;2613168;54;20427;-78
2021/12/16 03:35:52;;;;;;;68.13;31.73;;;9.90;99.90;;;;;;2614603;47;20426;-77
2021/12/16 03:38:19;;;;;;;80.07;43.77;;;9.90;99.90;;;;;;2613671;50;20479;-77
2021/12/16 03:40:45;;;;;;;79.33;41.23;;;9.90;99.90;;;;;;2613291;54;20410;-73
2021/12/16 03:43:18;;;;;;;75.77;41.63;;;10.00;99.90;;;;;;2612945;47;20419;-77
2021/12/16 03:48:52;;;;;;;84.80;43.07;;;10.20;99.90;;;;;;2614294;47;20489;-76
2021/12/16 03:51:31;;;;;;;95.20;43.90;;;9.90;99.90;;;;;;2613067;54;20426;-78
2021/12/16 03:54:08;;;;;;;86.40;44.03;;;9.80;99.90;;;;;;2614477;47;20996;-78
2021/12/16 03:56:38;;;;;;;80.27;43.50;;;9.80;99.90;;;;;;2613861;47;20431;-78
2021/12/16 03:59:12;;;;;;;69.23;30.87;;;9.80;99.90;;;;;;2613837;54;20510;-78
2021/12/16 04:02:15;;;;;;;92.27;42.80;;;9.70;99.90;;;;;;2612593;53;20403;-78
2021/12/16 04:04:44;;;;;;;80.37;41.03;;;9.70;99.90;;;;;;2614161;54;20411;-75
2021/12/16 04:07:11;;;;;;;74.90;37.63;;;9.70;99.90;;;;;;2614550;47;20427;-77
2021/12/16 04:09:58;;;;;;;84.00;42.63;;;9.70;99.90;;;;;;2614441;47;20439;-78
2021/12/16 04:12:27;;;;;;;94.80;45.37;;;9.80;99.90;;;;;;2614954;39;20888;-75
2021/12/16 04:14:59;;;;;;;90.27;43.50;;;9.90;99.90;;;;;;2614895;47;20408;-78
2021/12/16 04:17:28;;;;;;;94.30;43.97;;;9.90;99.90;;;;;;2615037;49;20408;-75
2021/12/16 04:19:59;;;;;;;82.73;44.70;;;10.00;99.90;;;;;;2615006;47;20480;-78
2021/12/16 04:22:32;;;;;;;83.03;41.07;;;9.90;99.90;;;;;;2614566;39;21864;-78
2021/12/16 04:25:05;;;;;;;81.17;40.77;;;10.00;99.90;;;;;;2615042;47;20434;-76
2021/12/16 04:27:34;;;;;;;82.23;43.80;;;9.90;99.90;;;;;;2611756;47;20500;-78
2021/12/16 04:30:01;;;;;;;76.80;45.23;;;9.70;99.90;;;;;;2614595;39;20808;-77
2021/12/16 04:32:26;;;;;;;83.97;42.53;;;9.90;99.90;;;;;;2615851;39;20857;-79
2021/12/16 04:34:53;;;;;;;81.07;42.53;;;9.90;99.90;;;;;;2615069;39;20891;-79
2021/12/16 04:37:19;;;;;;;87.57;44.87;;;10.00;99.90;;;;;;2614055;54;20473;-78
2021/12/16 04:39:46;;;;;;;87.97;44.10;;;10.10;99.90;;;;;;2613858;47;20468;-78
2021/12/16 04:42:16;;;;;;;88.77;44.17;;;10.20;99.90;;;;;;2614071;54;20455;-78
2021/12/16 04:44:46;;;;;;;84.20;44.50;;;10.20;99.90;;;;;;2614702;47;20414;-77
2021/12/16 04:47:13;;;;;;;84.53;45.00;;;10.50;99.90;;;;;;2613688;51;20403;-81
2021/12/16 04:49:41;;;;;;;92.93;47.40;;;10.60;99.90;;;;;;2613929;39;21089;-76
2021/12/16 04:52:14;;;;;;;79.27;42.67;;;10.30;99.90;;;;;;2615788;31;20887;-78
2021/12/16 04:54:40;;;;;;;86.83;44.07;;;9.90;99.90;;;;;;2614206;47;20439;-78
2021/12/16 04:57:09;;;;;;;85.13;44.37;;;9.90;99.90;;;;;;2615118;54;20406;-78
2021/12/16 04:59:39;;;;;;;77.87;41.60;;;10.20;99.90;;;;;;2614763;47;20415;-77
2021/12/16 05:02:25;;;;;;;92.07;43.40;;;9.90;99.90;;;;;;2615309;47;20428;-74
2021/12/16 05:05:08;;;;;;;82.53;41.33;;;9.80;99.90;;;;;;2615416;54;20415;-78
2021/12/16 05:07:34;;;;;;;84.43;43.87;;;9.70;99.90;;;;;;2615204;47;20415;-77
2021/12/16 05:10:21;;;;;;;77.57;42.10;;;9.90;99.90;;;;;;2615689;54;20411;-78
2021/12/16 05:12:59;;;;;;;83.23;42.40;;;9.80;99.90;;;;;;2614785;51;21036;-78
2021/12/16 05:15:32;;;;;;;89.77;41.70;;;9.80;99.90;;;;;;2615523;54;20433;-78
2021/12/16 05:18:01;;;;;;;88.13;45.70;;;9.50;99.90;;;;;;2614864;39;20759;-77
2021/12/16 05:20:32;;;;;;;96.60;45.70;;;9.60;99.90;;;;;;2614894;54;20541;-75
2021/12/16 05:28:11;;;;;;;86.10;45.40;;;9.60;99.90;;;;;;2616413;54;20417;-78
2021/12/16 05:30:37;;;;;;;96.23;46.33;;;9.90;99.90;;;;;;2615894;54;20415;-77
2021/12/16 05:33:04;;;;;;;95.40;48.83;;;10.30;99.90;;;;;;2614739;54;20419;-78
2021/12/16 05:35:31;;;;;;;88.07;46.53;;;10.00;99.90;;;;;;2615027;54;20510;-77
2021/12/16 05:37:58;;;;;;;82.97;46.30;;;9.80;99.90;;;;;;2614174;54;20435;-77
2021/12/16 05:40:28;;;;;;;83.80;47.33;;;10.10;99.90;;;;;;2615602;54;20416;-76
2021/12/16 05:43:18;;;;;;;94.27;48.23;;;9.80;99.90;;;;;;2614548;54;20423;-76
2021/12/16 05:45:45;;;;;;;87.13;43.73;;;10.40;99.90;;;;;;2615490;54;20399;-80
2021/12/16 05:48:15;;;;;;;112.73;45.10;;;10.50;99.90;;;;;;2614392;54;20411;-76
2021/12/16 05:50:45;;;;;;;100.57;48.73;;;10.80;99.90;;;;;;2614917;54;20457;-78
2021/12/16 05:53:11;;;;;;;99.80;47.57;;;11.30;99.90;;;;;;2613489;47;20427;-77
2021/12/16 05:55:37;;;;;;;102.30;47.27;;;10.60;99.90;;;;;;2615157;54;20532;-77
2021/12/16 05:58:18;;;;;;;91.27;48.07;;;10.80;99.90;;;;;;2615192;49;20410;-74
2021/12/16 06:00:49;;;;;;;102.87;48.90;;;10.40;99.90;;;;;;2613781;51;20422;-81
2021/12/16 06:03:17;;;;;;;80.80;43.67;;;10.20;99.90;;;;;;2614542;54;20435;-76
2021/12/16 06:05:43;;;;;;;99.83;47.40;;;10.20;99.90;;;;;;2615086;54;20937;-76
2021/12/16 06:08:10;;;;;;;89.83;44.60;;;10.40;99.90;;;;;;2614481;54;20435;-76
2021/12/16 06:13:14;;;;;;;87.07;46.27;;;10.40;99.90;;;;;;2615324;54;20514;-78
2021/12/16 06:16:02;;;;;;;105.53;48.17;;;10.20;99.90;;;;;;2615834;54;20421;-79
2021/12/16 06:26:58;;;;;;;95.33;47.40;;;10.40;99.90;;;;;;2615585;54;20399;-77
2021/12/16 06:29:24;;;;;;;98.70;47.07;;;9.80;99.90;;;;;;2614812;54;20402;-78
2021/12/16 06:31:51;;;;;;;94.10;47.60;;;9.70;99.90;;;;;;2614233;54;20399;-78
2021/12/16 06:34:17;;;;;;;96.17;48.27;;;9.90;99.90;;;;;;2614658;54;20935;-79
2021/12/16 06:36:43;;;;;;;87.27;45.87;;;9.90;99.90;;;;;;2614377;54;20956;-76
2021/12/16 06:39:09;;;;;;;91.87;45.80;;;9.90;99.90;;;;;;2614579;47;20937;-79
2021/12/16 06:41:39;;;;;;;100.83;45.53;;;9.90;99.90;;;;;;2614684;54;20543;-77
2021/12/16 06:44:25;;;;;;;90.77;47.20;;;9.80;99.90;;;;;;2615702;54;20974;-78
2021/12/16 06:46:57;;;;;;;87.90;44.00;;;10.00;99.90;;;;;;2614353;54;20399;-74
2021/12/16 06:49:25;;;;;;;101.90;46.13;;;10.30;99.90;;;;;;2613947;54;20404;-78
2021/12/16 06:51:56;;;;;;;92.70;47.20;;;10.40;99.90;;;;;;2614275;54;20422;-78
2021/12/16 06:54:29;;;;;;;94.73;45.13;;;10.20;99.90;;;;;;2615774;54;20391;-77
2021/12/16 06:57:11;;;;;;;75.97;42.40;;;10.80;99.90;;;;;;2614114;54;20411;-79
2021/12/16 06:59:47;;;;;;;91.23;43.43;;;11.00;99.90;;;;;;2615065;54;20532;-78
2021/12/16 07:02:35;;;;;;;86.73;43.50;;;10.80;99.90;;;;;;2612592;54;21933;-77
2021/12/16 07:04:59;;;;;;;89.20;42.93;;;10.80;99.90;;;;;;2612230;54;20455;-77
2021/12/16 07:07:25;;;;;;;83.33;44.67;;;10.70;99.90;;;;;;2615068;54;20450;-78
2021/12/16 07:09:50;;;;;;;81.10;42.37;;;10.80;99.90;;;;;;2612188;54;20147;-79
2021/12/16 07:12:24;;;;;;;90.57;44.20;;;10.70;99.90;;;;;;2613232;47;20488;-80
2021/12/16 07:14:50;;;;;;;89.47;43.40;;;10.40;99.90;;;;;;2609592;54;20278;-79
2021/12/16 07:17:17;;;;;;;83.87;44.30;;;10.40;99.90;;;;;;2611395;54;20963;-80
2021/12/16 07:19:45;;;;;;;80.73;44.27;;;10.70;99.90;;;;;;2610447;54;21626;-77
2021/12/16 07:22:12;;;;;;;89.47;47.17;;;10.10;99.90;;;;;;2609697;54;20436;-78
2021/12/16 07:24:38;;;;;;;88.13;44.47;;;9.90;99.90;;;;;;2612926;39;20836;-80
2021/12/16 07:27:06;;;;;;;97.70;49.23;;;10.10;99.90;;;;;;2630180;36;20424;-78
2021/12/16 07:29:32;;;;;;;103.43;50.33;;;10.10;99.90;;;;;;2613301;54;20443;-79
2021/12/16 07:32:01;;;;;;;104.37;49.23;;;10.10;99.90;;;;;;2610996;54;20390;-81
2021/12/16 07:34:28;;;;;;;96.63;45.90;;;9.80;99.90;;;;;;2609220;54;20397;-80
2021/12/16 07:36:54;;;;;;;101.60;50.30;;;9.70;99.90;;;;;;2614450;54;20363;-78
2021/12/16 07:39:28;;;;;;;101.00;49.70;;;9.80;99.90;;;;;;2613805;54;20531;-80
2021/12/16 07:41:56;;;;;;;87.23;47.63;;;9.90;99.90;;;;;;2614291;54;20419;-76
2021/12/16 07:44:23;;;;;;;98.47;46.93;;;9.90;99.90;;;;;;2612772;47;20431;-78
2021/12/16 07:46:55;;;;;;;93.27;46.00;;;9.70;99.90;;;;;;2614752;54;20404;-76
2021/12/16 07:49:27;;;;;;;102.33;51.03;;;9.70;99.90;;;;;;2612586;47;20424;-81
2021/12/16 07:51:56;;;;;;;91.77;48.37;;;9.70;99.90;;;;;;2615154;54;20416;-75
2021/12/16 07:54:23;;;;;;;95.63;48.93;;;9.80;99.90;;;;;;2615695;54;20426;-80
2021/12/16 07:56:52;;;;;;;105.73;48.77;;;9.80;99.90;;;;;;2615317;39;20825;-80
2021/12/16 07:59:19;;;;;;;99.03;49.47;;;9.90;99.90;;;;;;2613954;54;21018;-83
2021/12/16 08:01:46;;;;;;;88.70;41.57;;;10.00;99.90;;;;;;2614182;54;20967;-82
2021/12/16 08:04:20;;;;;;;102.40;47.80;;;9.60;99.90;;;;;;2613348;39;20810;-85
2021/12/16 08:06:48;;;;;;;100.10;49.27;;;9.50;99.90;;;;;;2612716;47;20449;-80
2021/12/16 08:09:15;;;;;;;100.07;47.47;;;9.60;99.90;;;;;;2612804;54;20491;-83
2021/12/16 08:11:42;;;;;;;92.83;44.97;;;9.70;99.90;;;;;;2614525;54;20423;-83
2021/12/16 08:14:09;;;;;;;99.43;47.37;;;9.80;99.90;;;;;;2613994;54;20499;-84
2021/12/16 08:16:36;;;;;;;111.60;50.00;;;10.30;99.90;;;;;;2613857;54;20944;-85
2021/12/16 08:19:03;;;;;;;107.53;50.80;;;10.30;99.90;;;;;;2613768;47;20991;-81
2021/12/16 08:21:29;;;;;;;101.87;48.10;;;10.80;99.90;;;;;;2614469;39;20829;-83
2021/12/16 08:23:57;;;;;;;136.63;57.10;;;11.40;99.90;;;;;;2613240;47;20415;-84
2021/12/16 08:26:23;;;;;;;115.03;56.73;;;11.40;99.90;;;;;;2614118;54;20415;-86
2021/12/16 08:28:49;;;;;;;119.73;56.53;;;11.40;99.90;;;;;;2613810;54;20407;-84
2021/12/16 08:31:25;;;;;;;123.37;54.60;;;11.50;99.90;;;;;;2614139;54;20431;-81
2021/12/16 08:33:52;;;;;;;116.13;52.57;;;11.50;99.90;;;;;;2617045;39;20820;-82
2021/12/16 08:36:17;;;;;;;121.23;52.10;;;11.30;99.90;;;;;;2614768;54;20436;-81
2021/12/16 08:38:45;;;;;;;108.93;52.90;;;11.30;99.90;;;;;;2614059;54;20404;-82
2021/12/16 08:41:26;;;;;;;109.60;51.23;;;10.90;99.90;;;;;;2616811;54;20391;-83
2021/12/16 08:43:53;;;;;;;104.30;49.50;;;10.40;99.90;;;;;;2616158;54;21010;-83
2021/12/16 08:46:23;;;;;;;106.53;49.13;;;10.80;99.90;;;;;;2615573;54;20412;-85
2021/12/16 08:48:50;;;;;;;113.10;50.57;;;10.80;99.90;;;;;;2618085;39;20980;-86
2021/12/16 08:51:28;;;;;;;117.43;51.20;;;10.90;99.90;;;;;;2617633;54;20446;-85
2021/12/16 08:53:54;;;;;;;121.70;51.70;;;11.00;99.90;;;;;;2618059;54;20433;-84
2021/12/16 08:56:22;;;;;;;107.73;51.37;;;10.90;99.90;;;;;;2615894;54;20411;-81
2021/12/16 08:58:48;;;;;;;112.80;45.47;;;10.80;99.90;;;;;;2616712;39;20940;-81
2021/12/16 09:01:19;;;;;;;107.47;49.10;;;10.60;99.90;;;;;;2615697;47;20444;-83
2021/12/16 09:03:45;;;;;;;113.33;49.73;;;10.70;99.90;;;;;;2615776;54;21111;-84
2021/12/16 09:06:12;;;;;;;103.33;47.90;;;10.90;99.90;;;;;;2616883;47;20969;-83
2021/12/16 09:08:39;;;;;;;85.70;42.50;;;10.90;99.90;;;;;;2616499;47;20443;-82
2021/12/16 09:11:08;;;;;;;90.93;40.20;;;9.90;99.90;;;;;;2615160;54;20391;-82
2021/12/16 09:13:38;;;;;;;99.83;44.03;;;9.70;99.90;;;;;;2614664;47;20415;-81
2021/12/16 09:16:09;;;;;;;106.90;43.57;;;9.60;99.90;;;;;;2615384;50;20404;-83
2021/12/16 09:18:41;;;;;;;98.03;43.30;;;9.70;99.90;;;;;;2616982;39;20474;-83
2021/12/16 09:21:10;;;;;;;96.87;45.47;;;9.80;99.90;;;;;;2613797;54;20526;-84
2021/12/16 09:23:37;;;;;;;101.97;42.17;;;9.50;99.90;;;;;;2615125;39;20810;-84
2021/12/16 09:26:04;;;;;;;78.60;41.70;;;9.70;99.90;;;;;;2616713;54;20415;-82
2021/12/16 09:28:30;;;;;;;110.67;44.57;;;10.00;99.90;;;;;;2615965;54;20391;-84
2021/12/16 09:30:56;;;;;;;103.43;45.83;;;10.00;99.90;;;;;;2612798;54;20924;-83
2021/12/16 09:33:25;;;;;;;104.07;46.97;;;9.90;99.90;;;;;;2612111;51;21018;-83
2021/12/16 09:35:54;;;;;;;118.60;47.50;;;10.10;99.90;;;;;;2613947;54;21235;-84
2021/12/16 09:38:22;;;;;;;118.13;51.77;;;10.10;99.90;;;;;;2613841;39;20845;-84
2021/12/16 09:40:53;;;;;;;106.97;46.43;;;10.20;99.90;;;;;;2614984;54;20427;-84
2021/12/16 09:43:23;;;;;;;107.00;42.90;;;9.80;99.90;;;;;;2614357;54;20399;-79
2021/12/16 09:45:50;;;;;;;104.20;47.53;;;9.80;99.90;;;;;;2614645;54;20956;-83
2021/12/16 09:48:17;;;;;;;106.93;48.10;;;9.60;99.90;;;;;;2615165;54;21291;-84
2021/12/16 09:50:43;;;;;;;111.00;50.40;;;9.80;99.90;;;;;;2614542;54;20414;-78
2021/12/16 09:53:09;;;;;;;110.50;47.20;;;9.70;99.90;;;;;;2613065;54;20423;-84
2021/12/16 09:55:35;;;;;;;103.50;50.77;;;10.00;99.90;;;;;;2614379;54;20176;-82
2021/12/16 09:58:03;;;;;;;109.17;48.10;;;10.20;99.90;;;;;;2615795;54;20394;-84
2021/12/16 10:00:30;;;;;;;109.47;48.17;;;10.50;99.90;;;;;;2615862;54;20419;-84
2021/12/16 10:02:59;;;;;;;107.03;48.93;;;11.00;99.90;;;;;;2614283;50;20443;-80
2021/12/16 10:05:26;;;;;;;116.53;51.40;;;11.00;99.90;;;;;;2612661;39;20462;-84
2021/12/16 10:07:52;;;;;;;117.03;51.07;;;11.10;99.90;;;;;;2615422;54;20484;-84
2021/12/16 10:10:26;;;;;;;116.93;48.57;;;10.80;99.90;;;;;;2614572;54;20826;-84
2021/12/16 10:12:59;;;;;;;117.40;55.80;;;10.90;99.90;;;;;;2615794;54;20411;-82
2021/12/16 10:18:08;;;;;;;127.23;50.40;;;10.80;99.90;;;;;;2614865;54;20429;-80
2021/12/16 10:20:51;;;;;;;117.67;51.27;;;11.20;99.90;;;;;;2615172;47;20441;-84
2021/12/16 10:23:28;;;;;;;111.23;47.10;;;11.00;99.90;;;;;;2616226;54;20550;-81
2021/12/16 10:26:06;;;;;;;112.90;48.97;;;10.60;99.90;;;;;;2614351;47;20467;-83
2021/12/16 10:28:41;;;;;;;121.57;47.07;;;10.30;99.90;;;;;;2616538;39;21209;-85
2021/12/16 10:31:25;;;;;;;127.57;51.00;;;10.50;99.90;;;;;;2615354;39;20840;-84
2021/12/16 10:34:04;;;;;;;121.47;48.73;;;10.40;99.90;;;;;;2611987;54;20406;-84
2021/12/16 10:36:32;;;;;;;106.00;50.50;;;11.10;99.90;;;;;;2613268;54;20522;-78
2021/12/16 10:39:07;;;;;;;106.57;47.17;;;10.80;99.90;;;;;;2615578;39;20884;-84
2021/12/16 10:41:37;;;;;;;100.17;47.27;;;10.80;99.90;;;;;;2615040;47;20439;-79
2021/12/16 10:44:12;;;;;;;102.87;47.90;;;10.80;99.90;;;;;;2614547;54;20456;-79
2021/12/16 10:46:49;;;;;;;107.40;48.40;;;10.70;99.90;;;;;;2614001;51;20892;-82
2021/12/16 10:49:21;;;;;;;111.40;46.27;;;10.60;99.90;;;;;;2611805;54;20403;-83
2021/12/16 10:52:01;;;;;;;115.80;46.47;;;11.20;99.90;;;;;;2613841;54;20435;-79
2021/12/16 10:54:34;;;;;;;110.70;47.33;;;10.90;99.90;;;;;;2614322;39;21088;-78
2021/12/16 10:57:20;;;;;;;93.33;42.77;;;10.60;99.90;;;;;;2613098;54;20422;-78
2021/12/16 10:59:56;;;;;;;112.47;45.43;;;10.60;99.90;;;;;;2614343;54;20397;-77
2021/12/16 11:02:32;;;;;;;104.80;41.43;;;10.80;99.90;;;;;;2614072;54;20399;-79
2021/12/16 11:05:06;;;;;;;95.80;42.40;;;10.50;99.90;;;;;;2614944;54;20385;-81
2021/12/16 11:07:42;;;;;;;96.40;44.03;;;10.30;99.90;;;;;;2612913;54;20453;-80
2021/12/16 11:10:27;;;;;;;97.17;41.50;;;10.30;99.90;;;;;;2614954;31;20919;-78
2021/12/16 11:13:02;;;;;;;122.37;43.40;;;10.30;99.90;;;;;;2612158;54;20396;-79
2021/12/16 11:15:41;;;;;;;89.60;42.60;;;10.10;99.90;;;;;;2614768;54;20411;-78
2021/12/16 11:18:13;;;;;;;91.97;42.67;;;10.00;99.90;;;;;;2613639;54;20518;-79
2021/12/16 11:20:53;;;;;;;112.50;44.77;;;9.90;99.90;;;;;;2614926;54;20404;-78
2021/12/16 11:23:23;;;;;;;109.37;44.57;;;9.90;99.90;;;;;;2611642;47;20476;-78
2021/12/16 11:26:03;;;;;;;96.60;45.87;;;10.30;99.90;;;;;;2612285;39;20750;-75
2021/12/16 11:28:35;;;;;;;98.60;42.30;;;10.40;99.90;;;;;;2612039;54;20865;-78
2021/12/16 11:31:06;;;;;;;100.23;42.63;;;10.90;99.90;;;;;;2612238;54;20388;-78
2021/12/16 11:33:38;;;;;;;95.33;43.90;;;11.00;99.90;;;;;;2609682;39;21082;-80
2021/12/16 11:36:16;;;;;;;91.67;42.10;;;11.10;99.90;;;;;;2613067;54;20519;-78
2021/12/16 11:38:59;;;;;;;97.73;42.90;;;11.70;99.90;;;;;;2610990;54;20411;-78
2021/12/16 11:41:43;;;;;;;108.13;45.10;;;11.70;99.90;;;;;;2612225;54;20407;-78
2021/12/16 11:44:32;;;;;;;99.33;46.70;;;11.80;99.90;;;;;;2609639;39;20845;-77
2021/12/16 11:47:09;;;;;;;97.10;42.90;;;11.70;99.90;;;;;;2614132;54;20407;-80
2021/12/16 11:49:50;;;;;;;97.57;43.70;;;11.60;99.90;;;;;;2610086;54;20383;-81
2021/12/16 11:52:26;;;;;;;101.27;45.90;;;11.10;99.90;;;;;;2613618;47;20530;-80
2021/12/16 11:55:09;;;;;;;86.20;41.70;;;10.70;99.90;;;;;;2611733;54;20407;-81
2021/12/16 11:57:43;;;;;;;86.00;42.73;;;11.10;99.90;;;;;;2613870;54;20416;-80
2021/12/16 12:00:18;;;;;;;91.60;42.87;;;11.10;99.90;;;;;;2615021;54;20398;-78
2021/12/16 12:02:48;;;;;;;100.93;45.00;;;11.50;99.90;;;;;;2613242;54;20450;-79
2021/12/16 12:05:32;;;;;;;100.43;47.13;;;11.60;99.90;;;;;;2613121;54;20443;-79
2021/12/16 12:08:03;;;;;;;111.13;48.77;;;12.30;99.90;;;;;;2612947;39;20846;-81
2021/12/16 12:11:02;;;;;;;99.20;44.33;;;12.70;99.90;;;;;;2611970;54;20499;-80
2021/12/16 12:13:36;;;;;;;98.87;44.20;;;12.10;99.90;;;;;;2613813;47;20423;-78
2021/12/16 12:16:13;;;;;;;93.23;45.47;;;11.50;99.90;;;;;;2614577;54;20860;-81
2021/12/16 12:18:44;;;;;;;92.60;48.17;;;11.70;99.90;;;;;;2614158;54;20407;-80
2021/12/16 12:21:28;;;;;;;106.77;45.00;;;12.30;99.90;;;;;;2614732;54;20483;-76
2021/12/16 12:23:58;;;;;;;101.90;47.60;;;12.10;99.90;;;;;;2613570;54;20403;-80
2021/12/16 12:26:26;;;;;;;98.70;47.13;;;12.40;99.90;;;;;;2613296;54;20458;-82
2021/12/16 12:29:00;;;;;;;95.90;47.20;;;12.60;99.90;;;;;;2613632;54;20379;-79
2021/12/16 12:31:28;;;;;;;106.97;46.90;;;12.20;99.90;;;;;;2612381;47;20980;-80
2021/12/16 12:33:56;;;;;;;92.90;43.50;;;12.40;99.90;;;;;;2613512;54;20408;-80
2021/12/16 12:36:23;;;;;;;108.80;51.43;;;12.40;99.90;;;;;;2613062;54;20437;-80
2021/12/16 12:38:50;;;;;;;88.80;45.63;;;12.60;99.90;;;;;;2612207;39;20799;-78
2021/12/16 12:41:16;;;;;;;96.53;45.03;;;12.30;99.90;;;;;;2612279;54;20551;-79
2021/12/16 12:43:43;;;;;;;106.67;47.30;;;12.50;99.90;;;;;;2611672;54;20416;-80
2021/12/16 12:46:12;;;;;;;90.27;46.87;;;13.00;99.90;;;;;;2614777;54;20407;-79
2021/12/16 12:48:40;;;;;;;91.87;44.47;;;13.50;99.90;;;;;;2615651;39;20905;-77
2021/12/16 12:51:07;;;;;;;88.93;43.27;;;13.30;99.90;;;;;;2613571;47;20501;-79
2021/12/16 12:53:52;;;;;;;79.60;43.43;;;13.10;99.90;;;;;;2614120;46;20975;-76
2021/12/16 12:56:28;;;;;;;94.17;43.13;;;12.50;99.90;;;;;;2613425;54;20560;-77
2021/12/16 12:59:01;;;;;;;93.37;42.10;;;12.30;99.90;;;;;;2613855;54;20469;-79
2021/12/16 13:01:47;;;;;;;85.07;38.90;;;12.30;99.90;;;;;;2612404;47;20451;-78
2021/12/16 13:04:24;;;;;;;91.47;41.13;;;12.40;99.90;;;;;;2613552;54;20427;-78
2021/12/16 13:07:01;;;;;;;87.37;43.77;;;12.30;99.90;;;;;;2614478;47;20419;-81
2021/12/16 13:09:37;;;;;;;77.07;42.73;;;12.60;99.90;;;;;;2614991;54;20414;-80
2021/12/16 13:12:37;;;;;;;88.93;40.80;;;13.10;99.90;;;;;;2613355;54;20518;-77
2021/12/16 13:15:45;;;;;;;95.20;42.67;;;12.70;99.90;;;;;;2613033;47;20412;-80
2021/12/16 13:24:04;;;;;;;95.10;41.27;;;13.40;99.90;;;;;;2614188;54;20400;-79
2021/12/16 13:26:42;;;;;;;93.70;45.67;;;13.30;99.90;;;;;;2614301;54;21045;-80
2021/12/16 13:32:09;;;;;;;84.23;42.13;;;12.70;99.90;;;;;;2614058;54;20421;-79
2021/12/16 13:34:36;;;;;;;102.40;47.20;;;12.90;99.90;;;;;;2614348;47;20431;-81
2021/12/16 13:37:14;;;;;;;98.93;46.00;;;13.10;99.90;;;;;;2613884;54;20880;-78
2021/12/16 13:39:46;;;;;;;102.30;44.07;;;13.10;99.90;;;;;;2615445;39;20779;-79
2021/12/16 13:42:15;;;;;;;103.83;46.67;;;13.10;99.90;;;;;;2614410;47;20444;-76
2021/12/16 13:45:03;;;;;;;88.83;44.13;;;13.40;99.90;;;;;;2611311;54;20484;-81
2021/12/16 14:04:57;;;;;;;100.13;46.17;;;11.60;99.90;;;;;;2608211;54;20473;-81
2021/12/16 14:07:55;;;;;;;102.00;45.60;;;12.20;99.90;;;;;;2612653;54;20992;-80
2021/12/16 14:10:33;;;;;;;106.30;45.87;;;12.40;99.90;;;;;;2611874;54;20415;-79
2021/12/16 14:45:53;;;;;;;100.23;47.50;;;11.50;99.90;;;;;;2614878;39;20776;-80
2021/12/16 14:48:32;;;;;;;100.27;47.20;;;11.70;99.90;;;;;;2613329;54;20419;-82
2021/12/16 14:51:12;;;;;;;88.47;47.10;;;11.90;99.90;;;;;;2613816;47;20479;-79
2021/12/16 14:53:43;;;;;;;99.37;44.57;;;11.90;99.90;;;;;;2616974;54;21103;-79
2021/12/16 14:56:31;;;;;;;94.00;42.57;;;12.00;99.90;;;;;;2614100;54;20387;-79
2021/12/16 14:59:03;;;;;;;84.43;42.50;;;11.20;99.90;;;;;;2614202;54;20427;-80
2021/12/16 15:01:35;;;;;;;98.00;43.40;;;11.30;99.90;;;;;;2614721;54;20997;-78
2021/12/16 15:04:05;;;;;;;82.90;40.23;;;11.00;99.90;;;;;;2613632;47;21094;-79
2021/12/16 15:06:47;;;;;;;77.13;39.87;;;10.80;99.90;;;;;;2614999;54;21081;-79
2021/12/16 15:09:24;;;;;;;80.07;38.70;;;10.50;99.90;;;;;;2611780;54;20429;-75
2021/12/16 15:39:56;;;;;;;111.87;46.97;;;11.10;99.90;;;;;;2614088;54;20420;-78
2021/12/16 15:45:17;;;;;;;115.10;46.50;;;10.40;99.90;;;;;;2613183;54;20423;-80
2021/12/16 15:47:52;;;;;;;108.27;45.80;;;10.30;99.90;;;;;;2612049;54;21031;-78
2021/12/16 15:50:26;;;;;;;108.07;46.00;;;10.10;99.90;;;;;;2615354;54;20496;-80
2021/12/16 15:52:54;;;;;;;109.80;46.10;;;10.40;99.90;;;;;;2613408;54;20411;-80
2021/12/16 15:55:41;;;;;;;110.87;46.17;;;10.30;99.90;;;;;;2614856;54;20380;-80
2021/12/16 15:58:29;;;;;;;113.73;48.03;;;10.00;99.90;;;;;;2613306;54;20444;-80
2021/12/16 16:01:05;;;;;;;113.57;48.83;;;10.10;99.90;;;;;;2613830;47;20429;-75
2021/12/16 16:03:31;;;;;;;111.73;47.23;;;10.30;99.90;;;;;;2612669;54;20423;-80
2021/12/16 16:06:01;;;;;;;115.33;48.77;;;10.30;99.90;;;;;;2611906;54;20423;-76
2021/12/16 16:08:30;;;;;;;115.67;53.50;;;10.60;99.90;;;;;;2614224;39;20841;-79
2021/12/16 16:11:03;;;;;;;119.03;49.67;;;11.00;99.90;;;;;;2613828;54;20433;-79
2021/12/16 16:13:41;;;;;;;123.53;51.83;;;11.40;99.90;;;;;;2613326;47;20443;-77
2021/12/16 16:16:07;;;;;;;121.37;47.63;;;10.90;99.90;;;;;;2612547;47;20465;-78
2021/12/16 16:18:39;;;;;;;109.50;49.40;;;10.50;99.90;;;;;;2613803;54;20527;-79
2021/12/16 16:21:12;;;;;;;108.20;48.23;;;10.30;99.90;;;;;;2612220;54;20944;-77
2021/12/16 16:23:41;;;;;;;135.80;55.60;;;10.10;99.90;;;;;;2614582;39;20796;-77
2021/12/16 16:26:10;;;;;;;104.77;54.27;;;10.30;99.90;;;;;;2612224;54;20415;-76
2021/12/16 16:28:39;;;;;;;127.33;53.13;;;10.90;99.90;;;;;;2611315;54;20411;-80
2021/12/16 16:31:16;;;;;;;112.90;49.87;;;10.60;99.90;;;;;;2611784;54;20408;-79
2021/12/16 16:33:42;;;;;;;109.07;51.53;;;10.90;99.90;;;;;;2611603;54;20475;-79
2021/12/16 16:36:13;;;;;;;114.20;51.83;;;11.00;99.90;;;;;;2612872;54;20451;-79
2021/12/16 16:38:40;;;;;;;115.37;49.63;;;11.10;99.90;;;;;;2612501;39;20850;-77
2021/12/16 16:41:12;;;;;;;116.13;48.73;;;11.30;99.90;;;;;;2614104;54;20441;-79
2021/12/16 16:43:47;;;;;;;113.77;50.63;;;11.40;99.90;;;;;;2612924;54;20425;-79
2021/12/16 16:46:26;;;;;;;119.03;52.60;;;11.80;99.90;;;;;;2612831;54;20951;-79
2021/12/16 16:49:10;;;;;;;106.17;54.00;;;11.40;99.90;;;;;;2612888;54;20453;-78
2021/12/16 16:51:39;;;;;;;110.30;50.37;;;11.20;99.90;;;;;;2613865;54;20425;-79